KOQT

Oak Ridge Airport

Tennessee, USA
METAR KOQT 181438Z AUTO VRB04KT 10SM BKN011 BKN015 OVC020 24/24 A3006 RMK AO2 T02390239
Observed Flight Rules
Aug-18 @ 14:38 UTC (13 minutes ago) Marginal Visual Flight Rules
Wind Visibility Clouds
Variable at 4 knots 10 miles
  • Broken at 1,100' AGL
  • Broken at 1,500' AGL
  • Overcast at 2,000' AGL
Temperatures Readings
Current 24°C / 75°F
Dewpoint 24°C / 75°F
Humidity 100%
Altimeter 30.06" Hg
Pressure 1018 hPa
Elevation 277
METAR KOQT 181438Z AUTO VRB04KT 10SM BKN011 BKN015 OVC020 24/24 A3006 RMK AO2 T02390239
Observed Flight Rules
Aug-18 @ 14:38 UTC
(13 minutes ago)
MVFR
Wind Visibility
Variable at 4 knots 10 miles
Clouds
  • Broken at 1,100' AGL
  • Broken at 1,500' AGL
  • Overcast at 2,000' AGL
Temperature Dewpoint
24°C / 75°F 24°C / 75°F
Humidity Altimeter Pressure
100% 30.06" Hg 1018 hPa